createdAt,value
2019-05-22T00:00:00.704Z,18.70
2019-05-22T00:02:41.041Z,17.80
2019-05-22T00:05:30.858Z,21.30
2019-05-22T00:08:00.229Z,21.08
2019-05-22T00:10:33.366Z,25.08
2019-05-22T00:13:02.724Z,22.40
2019-05-22T00:15:34.536Z,22.52
2019-05-22T00:18:04.958Z,25.77
2019-05-22T00:20:34.595Z,21.17
2019-05-22T00:23:05.058Z,23.00
2019-05-22T00:25:35.492Z,25.95
2019-05-22T00:28:05.011Z,20.23
2019-05-22T00:30:35.315Z,24.85
2019-05-22T00:33:04.043Z,26.65
2019-05-22T00:35:33.314Z,24.73
2019-05-22T00:38:04.363Z,22.23
2019-05-22T00:40:34.623Z,21.70
2019-05-22T00:43:10.774Z,22.02
2019-05-22T00:45:34.693Z,21.73
2019-05-22T00:48:05.141Z,21.12
2019-05-22T00:50:41.431Z,19.42
2019-05-22T00:53:29.769Z,18.30
2019-05-22T00:56:20.788Z,16.70
2019-05-22T00:58:54.937Z,18.12
2019-05-22T01:01:39.942Z,16.30
2019-05-22T01:04:13.465Z,16.17
2019-05-22T01:06:42.661Z,18.85
2019-05-22T01:09:19.289Z,19.77
2019-05-22T01:11:50.517Z,15.88
2019-05-22T01:14:19.687Z,16.12
2019-05-22T01:16:49.627Z,17.25
2019-05-22T01:19:20.428Z,15.00
2019-05-22T01:21:51.053Z,18.17
2019-05-22T01:24:20.753Z,15.80
2019-05-22T01:26:52.280Z,16.87
2019-05-22T01:29:21.917Z,19.30
2019-05-22T01:31:52.816Z,18.12
2019-05-22T01:34:26.758Z,17.08
2019-05-22T01:37:02.751Z,16.83
2019-05-22T01:39:51.112Z,18.52
2019-05-22T01:42:24.300Z,15.90
2019-05-22T01:45:04.225Z,15.77
2019-05-22T01:47:47.295Z,16.75
2019-05-22T01:50:17.795Z,18.97
2019-05-22T01:52:48.747Z,14.40
2019-05-22T01:55:20.018Z,16.33
2019-05-22T01:57:52.221Z,17.80
2019-05-22T02:00:23.187Z,16.80
2019-05-22T02:02:55.673Z,16.25
2019-05-22T02:05:27.099Z,16.15
2019-05-22T02:07:56.516Z,15.73
2019-05-22T02:10:27.691Z,13.15
2019-05-22T02:12:59.008Z,12.45
2019-05-22T02:15:29.396Z,12.75
2019-05-22T02:18:00.438Z,14.15
2019-05-22T02:20:29.979Z,15.32
2019-05-22T02:22:59.118Z,16.12
2019-05-22T02:25:30.497Z,18.83
2019-05-22T02:27:58.755Z,18.40
2019-05-22T02:30:28.317Z,18.92
2019-05-22T02:32:59.186Z,21.12
2019-05-22T02:35:30.256Z,23.12
2019-05-22T02:38:00.213Z,26.83
2019-05-22T02:40:31.578Z,23.08
2019-05-22T02:43:00.614Z,26.35
2019-05-22T02:45:30.605Z,25.33
2019-05-22T02:48:00.019Z,25.98
2019-05-22T02:50:31.860Z,21.45
2019-05-22T02:53:02.710Z,26.90
2019-05-22T02:55:31.889Z,25.10
2019-05-22T02:58:00.702Z,23.40
2019-05-22T03:00:31.169Z,23.60
2019-05-22T03:03:02.131Z,24.63
2019-05-22T03:05:44.460Z,22.15
2019-05-22T03:08:13.127Z,20.40
2019-05-22T03:10:45.595Z,16.02
2019-05-22T03:13:15.644Z,15.43
2019-05-22T03:15:44.847Z,14.05
2019-05-22T03:18:14.065Z,16.08
2019-05-22T03:20:45.144Z,14.13
2019-05-22T03:23:34.259Z,13.15
2019-05-22T03:26:04.996Z,16.25
2019-05-22T03:28:36.649Z,16.40
2019-05-22T03:31:10.348Z,14.13
2019-05-22T03:33:40.505Z,15.63
2019-05-22T03:36:10.140Z,20.98
2019-05-22T03:38:40.881Z,16.62
2019-05-22T03:41:09.289Z,24.55
2019-05-22T03:43:39.588Z,16.67
2019-05-22T03:46:23.037Z,18.73
2019-05-22T03:48:52.973Z,20.10
2019-05-22T03:51:24.568Z,18.08
2019-05-22T03:53:54.030Z,19.58
2019-05-22T03:56:24.290Z,20.60
2019-05-22T03:58:53.963Z,18.05
2019-05-22T04:01:23.906Z,15.68
2019-05-22T04:03:53.394Z,19.70
2019-05-22T04:06:24.048Z,15.80
2019-05-22T04:08:54.367Z,14.15
2019-05-22T04:11:25.335Z,12.73
2019-05-22T04:13:54.774Z,11.85
2019-05-22T04:16:25.772Z,9.57
2019-05-22T04:18:55.605Z,9.98
2019-05-22T04:21:24.967Z,10.52
2019-05-22T04:23:55.426Z,11.05
2019-05-22T04:26:24.210Z,11.05
2019-05-22T04:28:55.663Z,11.50
2019-05-22T04:31:34.958Z,12.65
2019-05-22T04:34:04.259Z,14.70
2019-05-22T04:36:33.899Z,15.23
2019-05-22T04:39:03.026Z,16.15
2019-05-22T04:41:33.269Z,14.70
2019-05-22T04:44:03.617Z,17.73
2019-05-22T04:46:33.675Z,14.00
2019-05-22T04:49:03.749Z,17.02
2019-05-22T04:51:34.616Z,17.27
2019-05-22T04:54:04.896Z,15.77
2019-05-22T04:56:35.421Z,17.98
2019-05-22T04:59:04.501Z,15.00
2019-05-22T05:01:33.747Z,15.82
2019-05-22T05:04:02.567Z,15.85
2019-05-22T05:06:32.066Z,14.90
2019-05-22T05:09:01.457Z,16.27
2019-05-22T05:11:31.229Z,15.50
2019-05-22T05:14:01.163Z,17.02
2019-05-22T05:16:30.628Z,18.08
2019-05-22T05:19:00.206Z,17.02
2019-05-22T05:21:29.504Z,19.27
2019-05-22T05:24:00.925Z,18.35
2019-05-22T05:26:30.402Z,23.52
2019-05-22T05:29:01.122Z,18.37
2019-05-22T05:31:29.662Z,17.23
2019-05-22T05:34:11.808Z,15.38
2019-05-22T05:36:40.589Z,18.45
2019-05-22T05:39:10.715Z,16.67
2019-05-22T05:41:41.034Z,16.12
2019-05-22T05:44:11.818Z,13.65
2019-05-22T05:46:41.606Z,16.92
2019-05-22T05:49:11.427Z,15.27
2019-05-22T05:51:46.283Z,14.60
2019-05-22T05:54:16.223Z,12.70
2019-05-22T05:56:46.143Z,12.93
2019-05-22T05:59:17.855Z,14.30
2019-05-22T06:01:51.318Z,11.55
2019-05-22T06:04:34.119Z,12.10
2019-05-22T06:07:14.673Z,13.40
2019-05-22T06:09:44.538Z,13.05
2019-05-22T06:12:13.551Z,9.90
2019-05-22T06:14:43.116Z,9.38
2019-05-22T06:17:33.168Z,13.90
2019-05-22T06:20:05.835Z,8.63
2019-05-22T06:22:35.953Z,8.73
2019-05-22T06:25:06.115Z,9.07
2019-05-22T06:27:40.019Z,10.30
2019-05-22T06:30:10.432Z,9.98
2019-05-22T06:32:58.281Z,8.60
2019-05-22T06:35:27.766Z,8.93
2019-05-22T06:38:00.219Z,10.98
2019-05-22T06:40:30.094Z,10.93
2019-05-22T06:43:24.138Z,9.40
2019-05-22T06:45:53.324Z,9.55
2019-05-22T06:48:23.887Z,8.35
2019-05-22T06:50:53.298Z,6.57
2019-05-22T06:53:24.232Z,6.93
2019-05-22T06:55:54.753Z,7.55
2019-05-22T06:58:25.268Z,6.37
2019-05-22T07:00:55.538Z,7.03
2019-05-22T07:03:25.409Z,7.37
2019-05-22T07:05:56.168Z,7.00
2019-05-22T07:08:26.752Z,7.82
2019-05-22T07:10:56.675Z,10.60
2019-05-22T07:13:27.364Z,7.32
2019-05-22T07:15:56.770Z,7.43
2019-05-22T07:18:26.330Z,7.82
2019-05-22T07:20:56.029Z,6.72
2019-05-22T07:23:29.333Z,7.60
2019-05-22T07:26:02.088Z,7.60
2019-05-22T07:28:30.228Z,9.35
2019-05-22T07:30:59.535Z,7.20
2019-05-22T07:33:30.047Z,9.45
2019-05-22T07:36:16.980Z,8.88
2019-05-22T07:38:30.417Z,7.00
2019-05-22T07:41:01.217Z,8.70
2019-05-22T07:43:30.687Z,7.43
2019-05-22T07:45:59.989Z,7.12
2019-05-22T07:48:29.603Z,7.05
2019-05-22T07:51:00.626Z,6.97
2019-05-22T07:53:30.196Z,7.55
2019-05-22T07:56:00.172Z,7.93
2019-05-22T07:58:29.419Z,7.72
2019-05-22T08:01:00.322Z,8.25
2019-05-22T08:03:29.199Z,8.88
2019-05-22T08:05:58.715Z,8.93
2019-05-22T08:08:29.396Z,9.38
2019-05-22T08:10:58.234Z,6.72
2019-05-22T08:13:28.132Z,5.75
2019-05-22T08:15:58.902Z,7.37
2019-05-22T08:18:28.560Z,7.47
2019-05-22T08:20:56.901Z,7.57
2019-05-22T08:23:28.899Z,7.10
2019-05-22T08:25:58.736Z,7.82
2019-05-22T08:28:27.754Z,7.62
2019-05-22T08:30:58.036Z,7.47
2019-05-22T08:33:27.478Z,9.43
2019-05-22T08:35:56.846Z,9.10
2019-05-22T08:38:28.257Z,8.32
2019-05-22T08:40:57.736Z,8.68
2019-05-22T08:43:26.515Z,9.18
2019-05-22T08:45:57.214Z,8.60
2019-05-22T08:48:27.149Z,10.75
2019-05-22T08:50:57.092Z,13.90
2019-05-22T08:53:26.769Z,8.02
2019-05-22T08:55:57.518Z,8.43
2019-05-22T08:58:26.874Z,7.45
2019-05-22T09:00:58.008Z,6.80
2019-05-22T09:03:27.986Z,10.80
2019-05-22T09:05:56.746Z,9.00
2019-05-22T09:08:25.689Z,8.82
2019-05-22T09:10:54.676Z,9.07
2019-05-22T09:13:23.536Z,9.10
2019-05-22T09:15:52.361Z,9.57
2019-05-22T09:18:21.648Z,10.00
2019-05-22T09:20:52.244Z,8.77
2019-05-22T09:23:22.017Z,8.30
2019-05-22T09:25:51.231Z,8.02
2019-05-22T09:28:21.704Z,8.18
2019-05-22T09:30:50.826Z,8.32
2019-05-22T09:33:19.848Z,13.00
2019-05-22T09:35:49.800Z,9.38
2019-05-22T09:38:20.331Z,8.15
2019-05-22T09:40:49.714Z,11.80
2019-05-22T09:43:20.805Z,9.60
2019-05-22T09:45:50.590Z,8.70
2019-05-22T09:48:21.726Z,9.45
2019-05-22T09:50:51.549Z,8.73
2019-05-22T09:53:22.244Z,7.85
2019-05-22T09:55:53.691Z,7.85
2019-05-22T09:58:23.737Z,9.00
2019-05-22T10:00:53.072Z,9.13
2019-05-22T10:03:22.197Z,8.50
2019-05-22T10:05:54.639Z,8.88
2019-05-22T10:08:23.271Z,8.18
2019-05-22T10:10:54.163Z,8.35
2019-05-22T10:13:22.561Z,9.18
2019-05-22T10:15:52.455Z,8.32
2019-05-22T10:18:21.948Z,9.77
2019-05-22T10:20:51.680Z,10.13
2019-05-22T10:23:20.822Z,12.32
2019-05-22T10:25:51.692Z,8.98
2019-05-22T10:28:21.402Z,9.52
2019-05-22T10:30:50.788Z,11.27
2019-05-22T10:33:20.768Z,11.18
2019-05-22T10:35:50.608Z,10.55
2019-05-22T10:38:20.773Z,10.00
2019-05-22T10:40:51.381Z,10.88
2019-05-22T10:43:21.085Z,9.13
2019-05-22T10:45:51.396Z,10.48
2019-05-22T10:48:20.897Z,12.20
2019-05-22T10:50:50.361Z,11.43
2019-05-22T10:53:32.878Z,9.80
2019-05-22T10:55:55.157Z,9.77
2019-05-22T10:58:26.435Z,9.27
2019-05-22T11:00:57.094Z,10.80
2019-05-22T11:03:28.141Z,11.12
2019-05-22T11:06:07.086Z,11.40
2019-05-22T11:08:30.342Z,10.02
2019-05-22T11:10:56.908Z,10.23
2019-05-22T11:13:26.132Z,10.63
2019-05-22T11:15:56.309Z,10.60
2019-05-22T11:18:25.491Z,12.85
2019-05-22T11:20:54.788Z,10.65
2019-05-22T11:23:24.635Z,14.00
2019-05-22T11:25:54.022Z,11.80
2019-05-22T11:28:24.004Z,11.50
2019-05-22T11:30:56.892Z,12.95
2019-05-22T11:33:26.684Z,12.13
2019-05-22T11:35:56.734Z,18.08
2019-05-22T11:38:25.702Z,11.65
2019-05-22T11:40:55.334Z,10.57
2019-05-22T11:43:24.203Z,11.27
2019-05-22T11:48:45.076Z,12.30
2019-05-22T11:51:14.292Z,12.80
2019-05-22T11:53:43.720Z,12.00
2019-05-22T11:56:12.475Z,13.05
2019-05-22T11:58:43.064Z,11.57
2019-05-22T12:01:13.774Z,12.10
2019-05-22T12:03:44.402Z,12.77
2019-05-22T12:06:15.474Z,13.07
2019-05-22T12:08:44.434Z,13.82
2019-05-22T12:11:15.401Z,12.35
2019-05-22T12:13:44.129Z,13.52
2019-05-22T12:16:13.561Z,25.80
2019-05-22T12:18:44.437Z,13.52
2019-05-22T12:21:14.499Z,14.07
2019-05-22T12:23:43.269Z,17.33
2019-05-22T12:26:13.391Z,21.30
2019-05-22T12:28:43.311Z,15.82
2019-05-22T12:31:14.209Z,12.05
2019-05-22T12:33:44.311Z,14.63
2019-05-22T12:36:15.369Z,9.25
2019-05-22T12:38:45.696Z,10.88
2019-05-22T12:41:14.431Z,9.65
2019-05-22T12:43:45.203Z,12.35
2019-05-22T12:46:13.760Z,11.82
2019-05-22T12:48:45.117Z,12.80
2019-05-22T12:51:15.557Z,9.50
2019-05-22T12:53:47.047Z,9.05
2019-05-22T12:56:17.773Z,8.77
2019-05-22T12:58:48.667Z,10.70
2019-05-22T13:01:19.557Z,7.87
2019-05-22T13:03:49.742Z,7.30
2019-05-22T13:06:20.867Z,6.20
2019-05-22T13:08:51.947Z,8.43
2019-05-22T13:11:21.052Z,6.37
2019-05-22T13:13:50.244Z,7.57
2019-05-22T13:16:19.569Z,9.45
2019-05-22T13:18:48.908Z,8.02
2019-05-22T13:21:19.660Z,7.50
2019-05-22T13:23:49.474Z,9.15
2019-05-22T13:26:18.990Z,7.15
2019-05-22T13:28:50.650Z,10.55
2019-05-22T13:31:21.244Z,7.43
2019-05-22T13:33:52.492Z,6.75
2019-05-22T13:36:22.236Z,8.45
2019-05-22T13:38:51.060Z,6.15
2019-05-22T13:41:21.170Z,7.00
2019-05-22T13:43:51.672Z,7.35
2019-05-22T13:46:20.618Z,8.23
2019-05-22T13:48:48.896Z,8.85
2019-05-22T13:51:17.743Z,9.23
2019-05-22T13:53:46.644Z,9.55
2019-05-22T13:56:16.046Z,8.70
2019-05-22T13:58:44.910Z,8.82
2019-05-22T14:01:14.895Z,10.57
2019-05-22T14:03:43.878Z,9.02
2019-05-22T14:06:15.162Z,9.05
2019-05-22T14:08:44.678Z,10.68
2019-05-22T14:11:14.337Z,16.75
2019-05-22T14:13:44.673Z,14.87
2019-05-22T14:16:15.791Z,13.02
2019-05-22T14:18:45.103Z,17.65
2019-05-22T14:21:14.488Z,13.02
2019-05-22T14:23:44.314Z,10.70
2019-05-22T14:26:12.780Z,20.37
2019-05-22T14:28:42.360Z,11.25
2019-05-22T14:31:11.641Z,12.13
2019-05-22T14:33:41.021Z,14.70
2019-05-22T14:36:12.080Z,12.52
2019-05-22T14:38:42.081Z,11.43
2019-05-22T14:41:11.627Z,14.60
2019-05-22T14:43:42.391Z,14.07
2019-05-22T14:46:12.681Z,16.08
2019-05-22T14:48:41.570Z,18.55
2019-05-22T14:51:11.855Z,18.62
2019-05-22T14:53:42.476Z,18.65
2019-05-22T14:56:12.777Z,22.30
2019-05-22T14:58:42.550Z,22.42
2019-05-22T15:01:11.595Z,22.25
2019-05-22T15:03:41.905Z,18.23
2019-05-22T15:06:11.950Z,22.17
2019-05-22T15:08:41.144Z,19.95
2019-05-22T15:11:10.119Z,18.75
2019-05-22T15:13:39.332Z,15.38
2019-05-22T15:16:08.664Z,14.45
2019-05-22T15:18:38.856Z,17.90
2019-05-22T15:21:09.472Z,13.75
2019-05-22T15:23:38.860Z,12.95
2019-05-22T15:26:09.155Z,15.70
2019-05-22T15:28:39.908Z,16.83
2019-05-22T15:31:11.208Z,19.23
2019-05-22T15:33:40.607Z,18.50
2019-05-22T15:36:10.178Z,17.52
2019-05-22T15:38:42.815Z,14.27
2019-05-22T15:41:14.041Z,16.83
2019-05-22T15:43:44.528Z,11.65
2019-05-22T15:46:17.286Z,14.63
2019-05-22T15:48:50.300Z,11.98
2019-05-22T15:51:21.740Z,11.73
2019-05-22T15:53:52.999Z,11.43
2019-05-22T15:56:23.236Z,11.48
2019-05-22T15:58:53.758Z,10.85
2019-05-22T16:01:23.347Z,9.98
2019-05-22T16:03:52.712Z,10.70
2019-05-22T16:06:22.136Z,8.30
2019-05-22T16:08:52.383Z,8.55
2019-05-22T16:11:21.903Z,10.07
2019-05-22T16:13:50.717Z,12.88
2019-05-22T16:16:20.921Z,14.13
2019-05-22T16:18:51.044Z,14.40
2019-05-22T16:21:19.943Z,12.20
2019-05-22T16:23:48.816Z,13.68
2019-05-22T16:26:19.087Z,13.57
2019-05-22T16:28:49.339Z,15.25
2019-05-22T16:31:17.624Z,12.85
2019-05-22T16:33:47.127Z,13.48
2019-05-22T16:36:17.221Z,15.55
2019-05-22T16:38:47.551Z,14.55
2019-05-22T16:41:18.379Z,13.82
2019-05-22T16:43:50.474Z,12.55
2019-05-22T16:46:19.843Z,14.07
2019-05-22T16:48:50.382Z,15.75
2019-05-22T16:51:20.590Z,14.05
2019-05-22T16:53:50.731Z,14.25
2019-05-22T16:56:20.979Z,12.95
2019-05-22T16:58:51.032Z,11.50
2019-05-22T17:01:20.552Z,12.27
2019-05-22T17:03:51.021Z,11.88
2019-05-22T17:06:20.361Z,14.70
2019-05-22T17:08:49.889Z,10.20
2019-05-22T17:11:18.811Z,7.57
2019-05-22T17:13:48.834Z,7.95
2019-05-22T17:16:18.711Z,7.72
2019-05-22T17:18:48.970Z,9.40
2019-05-22T17:21:16.802Z,10.25
2019-05-22T17:23:46.986Z,7.20
2019-05-22T17:26:15.791Z,9.05
2019-05-22T17:28:45.172Z,10.43
2019-05-22T17:31:17.516Z,12.68
2019-05-22T17:33:47.763Z,9.57
2019-05-22T17:36:17.892Z,9.38
2019-05-22T17:38:50.268Z,10.27
2019-05-22T17:41:20.547Z,13.85
2019-05-22T17:43:50.699Z,13.18
2019-05-22T17:46:20.609Z,13.50
2019-05-22T17:48:49.276Z,11.45
2019-05-22T17:51:20.099Z,9.63
2019-05-22T17:53:48.908Z,10.75
2019-05-22T17:56:18.464Z,19.15
2019-05-22T17:58:48.138Z,9.50
2019-05-22T18:01:17.312Z,11.32
2019-05-22T18:03:46.340Z,7.43
2019-05-22T18:06:17.109Z,6.30
2019-05-22T18:08:45.791Z,7.30
2019-05-22T18:11:14.575Z,6.57
2019-05-22T18:13:57.536Z,6.40
2019-05-22T18:16:27.842Z,9.07
2019-05-22T18:18:56.664Z,7.55
2019-05-22T18:21:27.497Z,8.35
2019-05-22T18:23:58.304Z,10.18
2019-05-22T18:26:28.334Z,9.18
2019-05-22T18:28:57.084Z,13.60
2019-05-22T18:31:26.916Z,10.70
2019-05-22T18:33:57.177Z,10.63
2019-05-22T18:36:27.817Z,8.55
2019-05-22T18:38:58.440Z,8.90
2019-05-22T18:41:29.115Z,7.05
2019-05-22T18:44:00.842Z,5.70
2019-05-22T18:46:32.465Z,9.10
2019-05-22T18:49:02.283Z,6.97
2019-05-22T18:51:31.450Z,6.80
2019-05-22T18:53:59.950Z,5.97
2019-05-22T18:56:28.587Z,5.80
2019-05-22T18:58:57.323Z,11.02
2019-05-22T19:01:26.908Z,6.28
2019-05-22T19:03:56.110Z,7.72
2019-05-22T19:06:30.667Z,6.72
2019-05-22T19:08:55.927Z,8.45
2019-05-22T19:11:25.811Z,6.95
2019-05-22T19:13:54.657Z,10.93
2019-05-22T19:16:24.714Z,9.00
2019-05-22T19:18:54.648Z,7.22
2019-05-22T19:21:43.449Z,7.20
2019-05-22T19:24:11.619Z,8.32
2019-05-22T19:26:41.883Z,9.05
2019-05-22T19:29:11.299Z,10.30
2019-05-22T19:31:42.385Z,6.57
2019-05-22T19:34:12.205Z,9.77
2019-05-22T19:36:41.503Z,7.53
2019-05-22T19:39:10.739Z,8.35
2019-05-22T19:41:38.960Z,11.82
2019-05-22T19:44:07.252Z,12.43
2019-05-22T19:46:38.670Z,12.85
2019-05-22T19:49:07.896Z,9.10
2019-05-22T19:51:37.458Z,9.43
2019-05-22T19:54:07.307Z,12.07
2019-05-22T19:56:36.591Z,10.30
2019-05-22T19:59:07.349Z,7.62
2019-05-22T20:01:36.583Z,8.02
2019-05-22T20:04:08.471Z,10.23
2019-05-22T20:06:38.417Z,11.07
2019-05-22T20:09:07.783Z,9.70
2019-05-22T20:11:37.472Z,7.82
2019-05-22T20:14:07.560Z,7.68
2019-05-22T20:16:36.268Z,12.70
2019-05-22T20:19:04.519Z,7.37
2019-05-22T20:21:34.282Z,12.10
2019-05-22T20:24:04.537Z,13.10
2019-05-22T20:26:33.765Z,11.85
2019-05-22T20:29:04.239Z,9.75
2019-05-22T20:31:35.816Z,10.93
2019-05-22T20:34:05.540Z,8.30
2019-05-22T20:36:35.988Z,12.23
2019-05-22T20:39:05.209Z,9.70
2019-05-22T20:41:34.481Z,9.38
2019-05-22T20:44:06.039Z,8.23
2019-05-22T20:46:37.992Z,9.93
2019-05-22T20:49:06.170Z,10.25
2019-05-22T20:51:37.381Z,11.65
2019-05-22T20:54:08.617Z,8.90
2019-05-22T20:56:38.158Z,7.00
2019-05-22T20:59:09.548Z,11.88
2019-05-22T21:01:40.205Z,15.18
2019-05-22T21:04:10.606Z,16.70
2019-05-22T21:06:42.079Z,10.35
2019-05-22T21:09:12.398Z,10.55
2019-05-22T21:11:40.596Z,12.35
2019-05-22T21:14:11.711Z,10.23
2019-05-22T21:16:41.232Z,11.00
2019-05-22T21:19:10.389Z,8.27
2019-05-22T21:21:39.158Z,8.70
2019-05-22T21:24:12.379Z,9.38
2019-05-22T21:26:39.919Z,10.23
2019-05-22T21:29:10.579Z,7.12
2019-05-22T21:31:39.957Z,8.98
2019-05-22T21:34:09.267Z,11.57
2019-05-22T21:36:39.607Z,8.10
2019-05-22T21:39:11.634Z,10.02
2019-05-22T21:41:40.916Z,10.35
2019-05-22T21:44:11.047Z,8.85
2019-05-22T21:46:40.567Z,9.88
2019-05-22T21:49:10.035Z,9.82
2019-05-22T21:51:39.695Z,12.00
2019-05-22T21:54:09.476Z,12.88
2019-05-22T21:56:39.978Z,13.32
2019-05-22T21:59:09.142Z,13.98
2019-05-22T22:01:42.881Z,12.68
2019-05-22T22:04:28.805Z,13.62
2019-05-22T22:06:58.208Z,12.55
2019-05-22T22:09:28.401Z,12.20
2019-05-22T22:11:57.988Z,12.10
2019-05-22T22:14:27.825Z,8.77
2019-05-22T22:16:57.597Z,15.15
2019-05-22T22:19:26.787Z,10.60
2019-05-22T22:21:55.845Z,11.00
2019-05-22T22:24:24.249Z,11.15
2019-05-22T22:26:54.110Z,8.43
2019-05-22T22:29:23.907Z,9.18
2019-05-22T22:31:53.525Z,9.38
2019-05-22T22:34:24.910Z,14.32
2019-05-22T22:36:54.168Z,9.77
2019-05-22T22:39:23.811Z,11.02
2019-05-22T22:41:53.790Z,14.82
2019-05-22T22:44:23.119Z,12.63
2019-05-22T22:46:58.642Z,14.80
2019-05-22T22:49:31.929Z,10.10
2019-05-22T22:52:01.987Z,9.73
2019-05-22T22:54:31.211Z,10.93
2019-05-22T22:57:00.994Z,8.65
2019-05-22T22:59:32.190Z,11.50
2019-05-22T23:02:02.132Z,16.35
2019-05-22T23:04:31.817Z,10.98
2019-05-22T23:07:01.507Z,12.70
2019-05-22T23:09:31.665Z,11.88
2019-05-22T23:12:01.074Z,9.18
2019-05-22T23:14:29.627Z,10.65
2019-05-22T23:17:00.099Z,13.43
2019-05-22T23:19:35.398Z,12.55
2019-05-22T23:22:05.563Z,14.83
2019-05-22T23:24:35.817Z,10.70
2019-05-22T23:27:06.160Z,9.13
2019-05-22T23:29:34.822Z,11.77
2019-05-22T23:32:04.215Z,10.63
2019-05-22T23:34:34.319Z,10.43
2019-05-22T23:37:03.662Z,11.48
2019-05-22T23:39:34.792Z,10.27
2019-05-22T23:42:06.716Z,11.27
2019-05-22T23:44:37.241Z,9.05
2019-05-22T23:47:06.445Z,8.50
2019-05-22T23:49:35.337Z,9.75
2019-05-22T23:52:04.582Z,8.18
2019-05-22T23:54:34.322Z,11.10
2019-05-22T23:57:04.403Z,8.38
2019-05-22T23:59:34.040Z,12.85
